sensor_id;sensor_type;location;lat;lon;timestamp;P1;durP1;ratioP1;P2;durP2;ratioP2
26319;SDS011;14024;52.226;5.200;2022-10-16T00:01:29;8.35;;;3.13;;
26319;SDS011;14024;52.226;5.200;2022-10-16T00:03:56;10.25;;;3.13;;
26319;SDS011;14024;52.226;5.200;2022-10-16T00:06:22;6.43;;;2.55;;
26319;SDS011;14024;52.226;5.200;2022-10-16T00:08:49;7.25;;;2.97;;
26319;SDS011;14024;52.226;5.200;2022-10-16T00:11:16;11.10;;;2.70;;
26319;SDS011;14024;52.226;5.200;2022-10-16T00:13:42;4.78;;;2.60;;
26319;SDS011;14024;52.226;5.200;2022-10-16T00:16:09;11.25;;;3.10;;
26319;SDS011;14024;52.226;5.200;2022-10-16T00:18:36;6.32;;;2.58;;
26319;SDS011;14024;52.226;5.200;2022-10-16T00:21:06;7.60;;;2.55;;
26319;SDS011;14024;52.226;5.200;2022-10-16T00:23:33;10.93;;;2.60;;
26319;SDS011;14024;52.226;5.200;2022-10-16T00:26:00;7.57;;;2.42;;
26319;SDS011;14024;52.226;5.200;2022-10-16T00:28:26;4.88;;;2.42;;
26319;SDS011;14024;52.226;5.200;2022-10-16T00:30:52;7.63;;;2.80;;
26319;SDS011;14024;52.226;5.200;2022-10-16T00:33:18;9.75;;;2.60;;
26319;SDS011;14024;52.226;5.200;2022-10-16T00:35:44;11.13;;;2.50;;
26319;SDS011;14024;52.226;5.200;2022-10-16T00:38:10;10.95;;;2.55;;
26319;SDS011;14024;52.226;5.200;2022-10-16T00:40:36;6.45;;;2.97;;
26319;SDS011;14024;52.226;5.200;2022-10-16T00:43:02;7.47;;;3.38;;
26319;SDS011;14024;52.226;5.200;2022-10-16T00:45:30;6.22;;;2.55;;
26319;SDS011;14024;52.226;5.200;2022-10-16T00:47:56;6.32;;;2.90;;
26319;SDS011;14024;52.226;5.200;2022-10-16T00:50:32;5.10;;;2.20;;
26319;SDS011;14024;52.226;5.200;2022-10-16T00:52:58;8.02;;;2.97;;
26319;SDS011;14024;52.226;5.200;2022-10-16T00:55:26;9.65;;;2.78;;
26319;SDS011;14024;52.226;5.200;2022-10-16T00:57:54;6.50;;;2.47;;
26319;SDS011;14024;52.226;5.200;2022-10-16T01:00:23;7.18;;;2.40;;
26319;SDS011;14024;52.226;5.200;2022-10-16T01:02:53;7.00;;;2.10;;
26319;SDS011;14024;52.226;5.200;2022-10-16T01:05:20;7.68;;;2.70;;
26319;SDS011;14024;52.226;5.200;2022-10-16T01:08:03;7.40;;;2.40;;
26319;SDS011;14024;52.226;5.200;2022-10-16T01:15:35;8.07;;;2.88;;
26319;SDS011;14024;52.226;5.200;2022-10-16T01:20:50;7.20;;;2.30;;
26319;SDS011;14024;52.226;5.200;2022-10-16T01:28:54;6.60;;;2.50;;
26319;SDS011;14024;52.226;5.200;2022-10-16T01:31:22;8.20;;;2.55;;
26319;SDS011;14024;52.226;5.200;2022-10-16T01:33:51;6.10;;;2.45;;
26319;SDS011;14024;52.226;5.200;2022-10-16T01:36:21;5.10;;;2.60;;
26319;SDS011;14024;52.226;5.200;2022-10-16T01:38:49;10.50;;;2.72;;
26319;SDS011;14024;52.226;5.200;2022-10-16T01:41:18;7.13;;;3.13;;
26319;SDS011;14024;52.226;5.200;2022-10-16T01:43:46;6.05;;;3.03;;
26319;SDS011;14024;52.226;5.200;2022-10-16T01:46:14;3.88;;;2.53;;
26319;SDS011;14024;52.226;5.200;2022-10-16T01:48:41;15.43;;;2.92;;
26319;SDS011;14024;52.226;5.200;2022-10-16T01:51:09;5.15;;;2.63;;
26319;SDS011;14024;52.226;5.200;2022-10-16T01:53:36;10.55;;;3.35;;
26319;SDS011;14024;52.226;5.200;2022-10-16T01:56:03;10.52;;;2.72;;
26319;SDS011;14024;52.226;5.200;2022-10-16T01:58:30;5.70;;;2.97;;
26319;SDS011;14024;52.226;5.200;2022-10-16T02:00:59;10.07;;;2.60;;
26319;SDS011;14024;52.226;5.200;2022-10-16T02:03:25;5.20;;;2.55;;
26319;SDS011;14024;52.226;5.200;2022-10-16T02:05:52;7.68;;;2.70;;
26319;SDS011;14024;52.226;5.200;2022-10-16T02:08:19;9.20;;;2.72;;
26319;SDS011;14024;52.226;5.200;2022-10-16T02:10:46;8.57;;;2.95;;
26319;SDS011;14024;52.226;5.200;2022-10-16T02:13:22;8.43;;;3.00;;
26319;SDS011;14024;52.226;5.200;2022-10-16T02:15:49;8.95;;;3.30;;
26319;SDS011;14024;52.226;5.200;2022-10-16T02:18:15;7.93;;;3.35;;
26319;SDS011;14024;52.226;5.200;2022-10-16T02:20:48;9.55;;;3.50;;
26319;SDS011;14024;52.226;5.200;2022-10-16T02:23:18;9.23;;;3.40;;
26319;SDS011;14024;52.226;5.200;2022-10-16T02:25:45;8.05;;;3.70;;
26319;SDS011;14024;52.226;5.200;2022-10-16T02:28:16;10.52;;;3.35;;
26319;SDS011;14024;52.226;5.200;2022-10-16T02:30:49;6.75;;;3.45;;
26319;SDS011;14024;52.226;5.200;2022-10-16T02:33:16;9.15;;;3.67;;
26319;SDS011;14024;52.226;5.200;2022-10-16T02:35:43;9.48;;;3.72;;
26319;SDS011;14024;52.226;5.200;2022-10-16T02:38:10;5.78;;;3.30;;
26319;SDS011;14024;52.226;5.200;2022-10-16T02:40:36;9.55;;;3.88;;
26319;SDS011;14024;52.226;5.200;2022-10-16T02:43:03;6.55;;;3.70;;
26319;SDS011;14024;52.226;5.200;2022-10-16T02:45:29;8.07;;;4.03;;
26319;SDS011;14024;52.226;5.200;2022-10-16T02:47:56;4.38;;;3.40;;
26319;SDS011;14024;52.226;5.200;2022-10-16T02:50:22;7.80;;;3.95;;
26319;SDS011;14024;52.226;5.200;2022-10-16T02:52:49;8.25;;;3.60;;
26319;SDS011;14024;52.226;5.200;2022-10-16T02:55:15;6.00;;;3.72;;
26319;SDS011;14024;52.226;5.200;2022-10-16T02:57:41;7.18;;;3.85;;
26319;SDS011;14024;52.226;5.200;2022-10-16T03:00:09;7.38;;;3.60;;
26319;SDS011;14024;52.226;5.200;2022-10-16T03:02:35;7.03;;;4.20;;
26319;SDS011;14024;52.226;5.200;2022-10-16T03:05:01;6.70;;;3.75;;
26319;SDS011;14024;52.226;5.200;2022-10-16T03:07:27;5.68;;;4.18;;
26319;SDS011;14024;52.226;5.200;2022-10-16T03:09:53;5.07;;;3.75;;
26319;SDS011;14024;52.226;5.200;2022-10-16T03:12:20;5.82;;;3.90;;
26319;SDS011;14024;52.226;5.200;2022-10-16T03:14:46;8.88;;;3.78;;
26319;SDS011;14024;52.226;5.200;2022-10-16T03:17:12;5.53;;;3.42;;
26319;SDS011;14024;52.226;5.200;2022-10-16T03:19:38;10.65;;;3.45;;
26319;SDS011;14024;52.226;5.200;2022-10-16T03:22:05;9.55;;;3.45;;
26319;SDS011;14024;52.226;5.200;2022-10-16T03:24:30;6.57;;;4.18;;
26319;SDS011;14024;52.226;5.200;2022-10-16T03:26:56;6.45;;;3.60;;
26319;SDS011;14024;52.226;5.200;2022-10-16T03:29:22;6.93;;;3.55;;
26319;SDS011;14024;52.226;5.200;2022-10-16T03:31:50;7.32;;;3.42;;
26319;SDS011;14024;52.226;5.200;2022-10-16T03:34:16;8.95;;;3.22;;
26319;SDS011;14024;52.226;5.200;2022-10-16T03:36:42;5.45;;;3.35;;
26319;SDS011;14024;52.226;5.200;2022-10-16T03:39:08;7.60;;;3.45;;
26319;SDS011;14024;52.226;5.200;2022-10-16T03:41:34;9.68;;;3.45;;
26319;SDS011;14024;52.226;5.200;2022-10-16T03:44:00;9.75;;;3.50;;
26319;SDS011;14024;52.226;5.200;2022-10-16T03:46:26;9.50;;;3.97;;
26319;SDS011;14024;52.226;5.200;2022-10-16T03:48:52;5.85;;;3.50;;
26319;SDS011;14024;52.226;5.200;2022-10-16T03:51:18;8.23;;;3.88;;
26319;SDS011;14024;52.226;5.200;2022-10-16T03:53:44;7.88;;;4.28;;
26319;SDS011;14024;52.226;5.200;2022-10-16T03:56:09;6.95;;;4.10;;
26319;SDS011;14024;52.226;5.200;2022-10-16T03:58:35;7.35;;;4.05;;
26319;SDS011;14024;52.226;5.200;2022-10-16T04:01:01;4.90;;;3.50;;
26319;SDS011;14024;52.226;5.200;2022-10-16T04:03:27;9.45;;;4.55;;
26319;SDS011;14024;52.226;5.200;2022-10-16T04:05:53;10.23;;;4.53;;
26319;SDS011;14024;52.226;5.200;2022-10-16T04:08:20;11.85;;;5.07;;
26319;SDS011;14024;52.226;5.200;2022-10-16T04:10:46;11.68;;;4.93;;
26319;SDS011;14024;52.226;5.200;2022-10-16T04:13:12;8.82;;;4.40;;
26319;SDS011;14024;52.226;5.200;2022-10-16T04:15:38;8.00;;;4.10;;
26319;SDS011;14024;52.226;5.200;2022-10-16T04:18:04;10.93;;;4.78;;
26319;SDS011;14024;52.226;5.200;2022-10-16T04:20:31;12.50;;;5.28;;
26319;SDS011;14024;52.226;5.200;2022-10-16T04:22:57;7.88;;;4.22;;
26319;SDS011;14024;52.226;5.200;2022-10-16T04:25:22;14.32;;;5.25;;
26319;SDS011;14024;52.226;5.200;2022-10-16T04:27:48;10.43;;;4.50;;
26319;SDS011;14024;52.226;5.200;2022-10-16T04:30:14;12.45;;;4.32;;
26319;SDS011;14024;52.226;5.200;2022-10-16T04:32:40;8.15;;;3.92;;
26319;SDS011;14024;52.226;5.200;2022-10-16T04:35:06;6.65;;;3.40;;
26319;SDS011;14024;52.226;5.200;2022-10-16T04:37:33;9.95;;;4.28;;
26319;SDS011;14024;52.226;5.200;2022-10-16T04:39:58;5.97;;;3.20;;
26319;SDS011;14024;52.226;5.200;2022-10-16T04:42:24;10.18;;;3.08;;
26319;SDS011;14024;52.226;5.200;2022-10-16T04:44:50;9.63;;;3.17;;
26319;SDS011;14024;52.226;5.200;2022-10-16T04:47:16;10.82;;;3.08;;
26319;SDS011;14024;52.226;5.200;2022-10-16T04:49:42;6.93;;;3.08;;
26319;SDS011;14024;52.226;5.200;2022-10-16T04:52:08;6.63;;;2.95;;
26319;SDS011;14024;52.226;5.200;2022-10-16T04:54:34;9.35;;;3.47;;
26319;SDS011;14024;52.226;5.200;2022-10-16T04:57:00;9.90;;;3.35;;
26319;SDS011;14024;52.226;5.200;2022-10-16T04:59:26;7.57;;;3.20;;
26319;SDS011;14024;52.226;5.200;2022-10-16T05:01:52;5.75;;;3.17;;
26319;SDS011;14024;52.226;5.200;2022-10-16T05:04:18;5.45;;;3.40;;
26319;SDS011;14024;52.226;5.200;2022-10-16T05:06:44;7.05;;;3.45;;
26319;SDS011;14024;52.226;5.200;2022-10-16T05:09:10;5.88;;;2.95;;
26319;SDS011;14024;52.226;5.200;2022-10-16T05:11:36;8.10;;;3.40;;
26319;SDS011;14024;52.226;5.200;2022-10-16T05:14:02;7.18;;;3.35;;
26319;SDS011;14024;52.226;5.200;2022-10-16T05:16:28;8.32;;;4.15;;
26319;SDS011;14024;52.226;5.200;2022-10-16T05:18:55;5.82;;;3.28;;
26319;SDS011;14024;52.226;5.200;2022-10-16T05:21:21;5.20;;;3.25;;
26319;SDS011;14024;52.226;5.200;2022-10-16T05:23:47;7.35;;;3.25;;
26319;SDS011;14024;52.226;5.200;2022-10-16T05:26:13;4.90;;;3.35;;
26319;SDS011;14024;52.226;5.200;2022-10-16T05:28:40;5.65;;;3.20;;
26319;SDS011;14024;52.226;5.200;2022-10-16T05:31:06;6.53;;;3.25;;
26319;SDS011;14024;52.226;5.200;2022-10-16T05:33:32;9.15;;;3.58;;
26319;SDS011;14024;52.226;5.200;2022-10-16T05:36:05;5.43;;;3.33;;
26319;SDS011;14024;52.226;5.200;2022-10-16T05:38:32;5.78;;;3.65;;
26319;SDS011;14024;52.226;5.200;2022-10-16T05:40:58;8.95;;;3.35;;
26319;SDS011;14024;52.226;5.200;2022-10-16T05:43:24;7.70;;;3.22;;
26319;SDS011;14024;52.226;5.200;2022-10-16T05:45:57;7.18;;;3.13;;
26319;SDS011;14024;52.226;5.200;2022-10-16T05:48:23;5.27;;;3.03;;
26319;SDS011;14024;52.226;5.200;2022-10-16T05:51:00;7.60;;;3.25;;
26319;SDS011;14024;52.226;5.200;2022-10-16T05:53:27;13.75;;;3.40;;
26319;SDS011;14024;52.226;5.200;2022-10-16T05:55:54;8.30;;;4.30;;
26319;SDS011;14024;52.226;5.200;2022-10-16T05:58:20;6.70;;;3.80;;
26319;SDS011;14024;52.226;5.200;2022-10-16T06:00:56;7.97;;;3.67;;
26319;SDS011;14024;52.226;5.200;2022-10-16T06:03:22;9.48;;;3.92;;
26319;SDS011;14024;52.226;5.200;2022-10-16T06:05:48;5.95;;;3.67;;
26319;SDS011;14024;52.226;5.200;2022-10-16T06:08:15;7.00;;;4.22;;
26319;SDS011;14024;52.226;5.200;2022-10-16T06:10:41;6.57;;;3.95;;
26319;SDS011;14024;52.226;5.200;2022-10-16T06:13:07;11.85;;;4.38;;
26319;SDS011;14024;52.226;5.200;2022-10-16T06:15:32;8.20;;;4.15;;
26319;SDS011;14024;52.226;5.200;2022-10-16T06:17:58;8.88;;;4.82;;
26319;SDS011;14024;52.226;5.200;2022-10-16T06:20:24;8.40;;;4.30;;
26319;SDS011;14024;52.226;5.200;2022-10-16T06:22:51;10.57;;;5.10;;
26319;SDS011;14024;52.226;5.200;2022-10-16T06:25:17;10.60;;;4.95;;
26319;SDS011;14024;52.226;5.200;2022-10-16T06:27:43;9.07;;;4.60;;
26319;SDS011;14024;52.226;5.200;2022-10-16T06:30:09;8.50;;;4.07;;
26319;SDS011;14024;52.226;5.200;2022-10-16T06:32:35;8.48;;;4.60;;
26319;SDS011;14024;52.226;5.200;2022-10-16T06:35:01;7.93;;;4.93;;
26319;SDS011;14024;52.226;5.200;2022-10-16T06:37:27;9.77;;;4.55;;
26319;SDS011;14024;52.226;5.200;2022-10-16T06:39:53;7.13;;;4.30;;
26319;SDS011;14024;52.226;5.200;2022-10-16T06:42:19;7.07;;;4.80;;
26319;SDS011;14024;52.226;5.200;2022-10-16T06:44:45;36.72;;;7.18;;
26319;SDS011;14024;52.226;5.200;2022-10-16T06:47:11;9.48;;;4.40;;
26319;SDS011;14024;52.226;5.200;2022-10-16T06:49:37;9.52;;;5.15;;
26319;SDS011;14024;52.226;5.200;2022-10-16T06:52:03;9.10;;;4.90;;
26319;SDS011;14024;52.226;5.200;2022-10-16T06:54:29;11.00;;;4.45;;
26319;SDS011;14024;52.226;5.200;2022-10-16T06:56:55;13.05;;;4.50;;
26319;SDS011;14024;52.226;5.200;2022-10-16T06:59:22;12.40;;;4.40;;
26319;SDS011;14024;52.226;5.200;2022-10-16T07:01:48;11.02;;;5.68;;
26319;SDS011;14024;52.226;5.200;2022-10-16T07:04:14;7.15;;;4.18;;
26319;SDS011;14024;52.226;5.200;2022-10-16T07:06:40;12.90;;;4.50;;
26319;SDS011;14024;52.226;5.200;2022-10-16T07:09:08;10.52;;;4.45;;
26319;SDS011;14024;52.226;5.200;2022-10-16T07:11:35;11.63;;;4.30;;
26319;SDS011;14024;52.226;5.200;2022-10-16T07:14:02;10.10;;;3.90;;
26319;SDS011;14024;52.226;5.200;2022-10-16T07:16:29;4.68;;;3.70;;
26319;SDS011;14024;52.226;5.200;2022-10-16T07:18:55;9.10;;;3.75;;
26319;SDS011;14024;52.226;5.200;2022-10-16T07:21:25;6.22;;;3.58;;
26319;SDS011;14024;52.226;5.200;2022-10-16T07:23:54;11.93;;;4.28;;
26319;SDS011;14024;52.226;5.200;2022-10-16T07:26:20;10.13;;;2.97;;
26319;SDS011;14024;52.226;5.200;2022-10-16T07:28:46;6.95;;;3.28;;
26319;SDS011;14024;52.226;5.200;2022-10-16T07:31:13;6.60;;;3.00;;
26319;SDS011;14024;52.226;5.200;2022-10-16T07:33:40;7.88;;;3.33;;
26319;SDS011;14024;52.226;5.200;2022-10-16T07:36:10;8.32;;;3.13;;
26319;SDS011;14024;52.226;5.200;2022-10-16T07:38:36;6.07;;;3.08;;
26319;SDS011;14024;52.226;5.200;2022-10-16T07:41:03;7.97;;;3.42;;
26319;SDS011;14024;52.226;5.200;2022-10-16T07:43:30;6.82;;;2.70;;
26319;SDS011;14024;52.226;5.200;2022-10-16T07:45:56;7.93;;;3.10;;
26319;SDS011;14024;52.226;5.200;2022-10-16T07:48:22;9.50;;;2.85;;
26319;SDS011;14024;52.226;5.200;2022-10-16T07:50:49;7.53;;;3.08;;
26319;SDS011;14024;52.226;5.200;2022-10-16T07:53:15;10.65;;;2.35;;
26319;SDS011;14024;52.226;5.200;2022-10-16T07:55:41;17.15;;;2.67;;
26319;SDS011;14024;52.226;5.200;2022-10-16T07:58:07;6.68;;;2.53;;
26319;SDS011;14024;52.226;5.200;2022-10-16T08:00:33;4.60;;;2.33;;
26319;SDS011;14024;52.226;5.200;2022-10-16T08:02:59;10.60;;;2.97;;
26319;SDS011;14024;52.226;5.200;2022-10-16T08:05:26;10.25;;;3.45;;
26319;SDS011;14024;52.226;5.200;2022-10-16T08:07:52;11.35;;;3.38;;
26319;SDS011;14024;52.226;5.200;2022-10-16T08:10:19;7.35;;;3.35;;
26319;SDS011;14024;52.226;5.200;2022-10-16T08:12:45;12.38;;;3.78;;
26319;SDS011;14024;52.226;5.200;2022-10-16T08:15:11;11.85;;;4.00;;
26319;SDS011;14024;52.226;5.200;2022-10-16T08:17:37;6.55;;;3.17;;
26319;SDS011;14024;52.226;5.200;2022-10-16T08:20:03;14.77;;;4.70;;
26319;SDS011;14024;52.226;5.200;2022-10-16T08:22:29;7.85;;;3.78;;
26319;SDS011;14024;52.226;5.200;2022-10-16T08:24:55;12.55;;;4.13;;
26319;SDS011;14024;52.226;5.200;2022-10-16T08:27:21;13.18;;;3.90;;
26319;SDS011;14024;52.226;5.200;2022-10-16T08:29:48;8.00;;;3.95;;
26319;SDS011;14024;52.226;5.200;2022-10-16T08:32:15;9.65;;;3.97;;
26319;SDS011;14024;52.226;5.200;2022-10-16T08:34:41;14.65;;;4.65;;
26319;SDS011;14024;52.226;5.200;2022-10-16T08:37:06;8.70;;;4.03;;
26319;SDS011;14024;52.226;5.200;2022-10-16T08:39:36;9.55;;;3.47;;
26319;SDS011;14024;52.226;5.200;2022-10-16T08:42:05;9.90;;;3.78;;
26319;SDS011;14024;52.226;5.200;2022-10-16T08:44:43;11.10;;;4.07;;
26319;SDS011;14024;52.226;5.200;2022-10-16T08:47:20;9.45;;;3.72;;
26319;SDS011;14024;52.226;5.200;2022-10-16T08:49:55;7.20;;;3.42;;
26319;SDS011;14024;52.226;5.200;2022-10-16T08:52:22;8.73;;;3.63;;
26319;SDS011;14024;52.226;5.200;2022-10-16T08:54:50;11.38;;;3.13;;
26319;SDS011;14024;52.226;5.200;2022-10-16T08:57:22;11.38;;;3.38;;
26319;SDS011;14024;52.226;5.200;2022-10-16T08:59:48;10.45;;;3.25;;
26319;SDS011;14024;52.226;5.200;2022-10-16T09:07:53;8.73;;;3.28;;
26319;SDS011;14024;52.226;5.200;2022-10-16T09:17:30;15.13;;;3.85;;
26319;SDS011;14024;52.226;5.200;2022-10-16T09:22:27;17.05;;;3.70;;
26319;SDS011;14024;52.226;5.200;2022-10-16T09:24:54;12.93;;;3.97;;
26319;SDS011;14024;52.226;5.200;2022-10-16T09:27:20;15.00;;;3.97;;
26319;SDS011;14024;52.226;5.200;2022-10-16T09:29:46;13.68;;;3.45;;
26319;SDS011;14024;52.226;5.200;2022-10-16T09:32:13;16.45;;;3.55;;
26319;SDS011;14024;52.226;5.200;2022-10-16T09:34:57;10.70;;;3.45;;
26319;SDS011;14024;52.226;5.200;2022-10-16T09:37:23;9.90;;;3.40;;
26319;SDS011;14024;52.226;5.200;2022-10-16T09:39:51;7.38;;;3.13;;
26319;SDS011;14024;52.226;5.200;2022-10-16T09:42:21;10.57;;;4.07;;
26319;SDS011;14024;52.226;5.200;2022-10-16T09:44:49;17.98;;;4.07;;
26319;SDS011;14024;52.226;5.200;2022-10-16T09:47:19;15.65;;;3.78;;
26319;SDS011;14024;52.226;5.200;2022-10-16T09:52:18;9.13;;;3.45;;
26319;SDS011;14024;52.226;5.200;2022-10-16T09:54:57;14.57;;;3.72;;
26319;SDS011;14024;52.226;5.200;2022-10-16T09:57:24;12.38;;;3.83;;
26319;SDS011;14024;52.226;5.200;2022-10-16T09:59:51;17.67;;;4.03;;
26319;SDS011;14024;52.226;5.200;2022-10-16T10:02:19;11.82;;;3.00;;
26319;SDS011;14024;52.226;5.200;2022-10-16T10:04:52;12.45;;;3.50;;
26319;SDS011;14024;52.226;5.200;2022-10-16T10:07:32;19.00;;;3.97;;
26319;SDS011;14024;52.226;5.200;2022-10-16T10:09:59;9.32;;;3.42;;
26319;SDS011;14024;52.226;5.200;2022-10-16T10:12:26;16.08;;;3.85;;
26319;SDS011;14024;52.226;5.200;2022-10-16T10:14:53;10.45;;;3.45;;
26319;SDS011;14024;52.226;5.200;2022-10-16T10:17:25;17.10;;;4.65;;
26319;SDS011;14024;52.226;5.200;2022-10-16T10:19:55;11.02;;;3.30;;
26319;SDS011;14024;52.226;5.200;2022-10-16T10:22:27;11.43;;;3.83;;
26319;SDS011;14024;52.226;5.200;2022-10-16T10:30:29;13.55;;;3.75;;
26319;SDS011;14024;52.226;5.200;2022-10-16T10:35:31;12.23;;;3.65;;
26319;SDS011;14024;52.226;5.200;2022-10-16T10:46:02;19.92;;;3.85;;
26319;SDS011;14024;52.226;5.200;2022-10-16T10:48:42;13.93;;;3.75;;
26319;SDS011;14024;52.226;5.200;2022-10-16T10:51:16;15.82;;;3.38;;
26319;SDS011;14024;52.226;5.200;2022-10-16T10:54:25;19.77;;;3.67;;
26319;SDS011;14024;52.226;5.200;2022-10-16T10:56:45;16.55;;;4.00;;
26319;SDS011;14024;52.226;5.200;2022-10-16T10:59:32;13.20;;;3.60;;
26319;SDS011;14024;52.226;5.200;2022-10-16T11:02:10;18.58;;;4.47;;
26319;SDS011;14024;52.226;5.200;2022-10-16T11:04:58;10.77;;;3.83;;
26319;SDS011;14024;52.226;5.200;2022-10-16T11:07:32;15.80;;;3.40;;
26319;SDS011;14024;52.226;5.200;2022-10-16T11:10:03;16.05;;;4.20;;
26319;SDS011;14024;52.226;5.200;2022-10-16T11:12:38;15.23;;;4.03;;
26319;SDS011;14024;52.226;5.200;2022-10-16T11:15:16;19.58;;;4.10;;
26319;SDS011;14024;52.226;5.200;2022-10-16T11:20:30;10.75;;;3.75;;
26319;SDS011;14024;52.226;5.200;2022-10-16T11:22:59;16.90;;;3.80;;
26319;SDS011;14024;52.226;5.200;2022-10-16T11:25:26;14.13;;;3.20;;
26319;SDS011;14024;52.226;5.200;2022-10-16T11:30:26;11.38;;;3.47;;
26319;SDS011;14024;52.226;5.200;2022-10-16T11:40:52;15.38;;;3.17;;
26319;SDS011;14024;52.226;5.200;2022-10-16T11:43:22;13.43;;;2.88;;
26319;SDS011;14024;52.226;5.200;2022-10-16T11:45:57;10.63;;;3.33;;
26319;SDS011;14024;52.226;5.200;2022-10-16T11:50:52;11.88;;;3.10;;
26319;SDS011;14024;52.226;5.200;2022-10-16T11:55:48;14.52;;;3.35;;
26319;SDS011;14024;52.226;5.200;2022-10-16T12:06:18;10.80;;;2.63;;
26319;SDS011;14024;52.226;5.200;2022-10-16T12:08:49;15.35;;;3.55;;
26319;SDS011;14024;52.226;5.200;2022-10-16T12:14:04;9.77;;;2.67;;
26319;SDS011;14024;52.226;5.200;2022-10-16T12:16:30;13.25;;;2.85;;
26319;SDS011;14024;52.226;5.200;2022-10-16T12:19:07;15.57;;;3.00;;
26319;SDS011;14024;52.226;5.200;2022-10-16T12:21:35;8.75;;;3.15;;
26319;SDS011;14024;52.226;5.200;2022-10-16T12:24:02;12.30;;;2.47;;
26319;SDS011;14024;52.226;5.200;2022-10-16T12:26:31;10.68;;;2.53;;
26319;SDS011;14024;52.226;5.200;2022-10-16T12:29:10;7.78;;;3.05;;
26319;SDS011;14024;52.226;5.200;2022-10-16T12:31:39;8.60;;;2.38;;
26319;SDS011;14024;52.226;5.200;2022-10-16T12:34:28;8.93;;;2.90;;
26319;SDS011;14024;52.226;5.200;2022-10-16T12:36:55;11.80;;;2.78;;
26319;SDS011;14024;52.226;5.200;2022-10-16T12:39:22;9.45;;;2.63;;
26319;SDS011;14024;52.226;5.200;2022-10-16T12:41:59;10.10;;;2.80;;
26319;SDS011;14024;52.226;5.200;2022-10-16T12:44:26;7.18;;;2.45;;
26319;SDS011;14024;52.226;5.200;2022-10-16T12:46:57;13.93;;;2.28;;
26319;SDS011;14024;52.226;5.200;2022-10-16T12:49:29;12.38;;;2.70;;
26319;SDS011;14024;52.226;5.200;2022-10-16T12:51:56;11.57;;;3.07;;
26319;SDS011;14024;52.226;5.200;2022-10-16T12:54:25;11.52;;;2.50;;
26319;SDS011;14024;52.226;5.200;2022-10-16T12:57:00;9.20;;;2.60;;
26319;SDS011;14024;52.226;5.200;2022-10-16T13:12:37;8.50;;;2.42;;
26319;SDS011;14024;52.226;5.200;2022-10-16T13:15:19;15.65;;;2.65;;
26319;SDS011;14024;52.226;5.200;2022-10-16T13:18:02;10.57;;;2.45;;
26319;SDS011;14024;52.226;5.200;2022-10-16T13:23:17;10.52;;;2.70;;
26319;SDS011;14024;52.226;5.200;2022-10-16T13:25:56;10.55;;;2.88;;
26319;SDS011;14024;52.226;5.200;2022-10-16T13:28:29;11.55;;;2.40;;
26319;SDS011;14024;52.226;5.200;2022-10-16T13:30:56;7.30;;;2.40;;
26319;SDS011;14024;52.226;5.200;2022-10-16T13:33:27;10.32;;;2.50;;
26319;SDS011;14024;52.226;5.200;2022-10-16T13:35:56;11.25;;;2.40;;
26319;SDS011;14024;52.226;5.200;2022-10-16T13:38:24;12.95;;;3.95;;
26319;SDS011;14024;52.226;5.200;2022-10-16T13:40:51;11.75;;;2.55;;
26319;SDS011;14024;52.226;5.200;2022-10-16T13:43:18;8.93;;;2.10;;
26319;SDS011;14024;52.226;5.200;2022-10-16T13:45:55;14.50;;;2.45;;
26319;SDS011;14024;52.226;5.200;2022-10-16T13:48:21;16.77;;;2.92;;
26319;SDS011;14024;52.226;5.200;2022-10-16T13:50:57;14.05;;;2.85;;
26319;SDS011;14024;52.226;5.200;2022-10-16T13:53:23;14.95;;;2.85;;
26319;SDS011;14024;52.226;5.200;2022-10-16T13:55:49;8.13;;;2.22;;
26319;SDS011;14024;52.226;5.200;2022-10-16T13:58:15;14.10;;;3.13;;
26319;SDS011;14024;52.226;5.200;2022-10-16T14:00:52;14.77;;;2.45;;
26319;SDS011;14024;52.226;5.200;2022-10-16T14:03:19;14.18;;;4.15;;
26319;SDS011;14024;52.226;5.200;2022-10-16T14:05:46;12.00;;;3.50;;
26319;SDS011;14024;52.226;5.200;2022-10-16T14:08:13;10.48;;;3.03;;
26319;SDS011;14024;52.226;5.200;2022-10-16T14:10:39;14.32;;;3.50;;
26319;SDS011;14024;52.226;5.200;2022-10-16T14:13:05;17.55;;;3.42;;
26319;SDS011;14024;52.226;5.200;2022-10-16T14:15:32;10.10;;;2.75;;
26319;SDS011;14024;52.226;5.200;2022-10-16T14:17:59;12.43;;;2.60;;
26319;SDS011;14024;52.226;5.200;2022-10-16T14:20:29;11.82;;;2.50;;
26319;SDS011;14024;52.226;5.200;2022-10-16T14:23:00;12.32;;;2.90;;
26319;SDS011;14024;52.226;5.200;2022-10-16T14:25:31;11.68;;;2.78;;
26319;SDS011;14024;52.226;5.200;2022-10-16T14:30:26;9.82;;;2.53;;
26319;SDS011;14024;52.226;5.200;2022-10-16T14:32:54;16.20;;;3.28;;
26319;SDS011;14024;52.226;5.200;2022-10-16T14:35:24;10.98;;;2.53;;
26319;SDS011;14024;52.226;5.200;2022-10-16T14:37:51;13.65;;;2.70;;
26319;SDS011;14024;52.226;5.200;2022-10-16T14:40:18;13.23;;;3.30;;
26319;SDS011;14024;52.226;5.200;2022-10-16T14:42:44;16.05;;;3.30;;
26319;SDS011;14024;52.226;5.200;2022-10-16T14:45:11;18.95;;;2.78;;
26319;SDS011;14024;52.226;5.200;2022-10-16T14:47:37;11.90;;;3.22;;
26319;SDS011;14024;52.226;5.200;2022-10-16T14:50:12;13.00;;;3.15;;
26319;SDS011;14024;52.226;5.200;2022-10-16T14:52:38;10.23;;;2.65;;
26319;SDS011;14024;52.226;5.200;2022-10-16T14:55:04;11.20;;;2.28;;
26319;SDS011;14024;52.226;5.200;2022-10-16T14:57:31;12.30;;;2.53;;
26319;SDS011;14024;52.226;5.200;2022-10-16T14:59:59;16.48;;;2.97;;
26319;SDS011;14024;52.226;5.200;2022-10-16T15:02:34;16.00;;;3.33;;
26319;SDS011;14024;52.226;5.200;2022-10-16T15:05:11;9.90;;;2.45;;
26319;SDS011;14024;52.226;5.200;2022-10-16T15:10:03;9.63;;;2.45;;
26319;SDS011;14024;52.226;5.200;2022-10-16T15:12:29;14.00;;;3.08;;
26319;SDS011;14024;52.226;5.200;2022-10-16T15:14:55;10.80;;;3.03;;
26319;SDS011;14024;52.226;5.200;2022-10-16T15:17:21;12.02;;;3.25;;
26319;SDS011;14024;52.226;5.200;2022-10-16T15:19:47;17.83;;;3.70;;
26319;SDS011;14024;52.226;5.200;2022-10-16T15:22:13;11.10;;;2.83;;
26319;SDS011;14024;52.226;5.200;2022-10-16T15:24:39;10.73;;;2.50;;
26319;SDS011;14024;52.226;5.200;2022-10-16T15:27:05;15.85;;;3.70;;
26319;SDS011;14024;52.226;5.200;2022-10-16T15:29:31;14.20;;;3.45;;
26319;SDS011;14024;52.226;5.200;2022-10-16T15:31:57;11.45;;;3.50;;
26319;SDS011;14024;52.226;5.200;2022-10-16T15:34:23;13.00;;;3.15;;
26319;SDS011;14024;52.226;5.200;2022-10-16T15:36:49;14.48;;;3.45;;
26319;SDS011;14024;52.226;5.200;2022-10-16T15:39:16;13.27;;;3.63;;
26319;SDS011;14024;52.226;5.200;2022-10-16T15:41:43;19.45;;;3.65;;
26319;SDS011;14024;52.226;5.200;2022-10-16T15:44:09;11.18;;;3.90;;
26319;SDS011;14024;52.226;5.200;2022-10-16T15:46:35;12.00;;;2.60;;
26319;SDS011;14024;52.226;5.200;2022-10-16T15:49:02;14.35;;;3.03;;
26319;SDS011;14024;52.226;5.200;2022-10-16T15:51:28;22.67;;;4.55;;
26319;SDS011;14024;52.226;5.200;2022-10-16T15:53:55;15.27;;;4.70;;
26319;SDS011;14024;52.226;5.200;2022-10-16T15:56:21;16.90;;;4.50;;
26319;SDS011;14024;52.226;5.200;2022-10-16T15:58:50;15.27;;;4.50;;
26319;SDS011;14024;52.226;5.200;2022-10-16T16:01:16;19.63;;;4.35;;
26319;SDS011;14024;52.226;5.200;2022-10-16T16:03:42;14.10;;;4.88;;
26319;SDS011;14024;52.226;5.200;2022-10-16T16:06:09;23.63;;;6.78;;
26319;SDS011;14024;52.226;5.200;2022-10-16T16:08:36;20.17;;;6.95;;
26319;SDS011;14024;52.226;5.200;2022-10-16T16:11:06;19.30;;;6.60;;
26319;SDS011;14024;52.226;5.200;2022-10-16T16:13:33;14.30;;;5.18;;
26319;SDS011;14024;52.226;5.200;2022-10-16T16:15:59;17.08;;;6.93;;
26319;SDS011;14024;52.226;5.200;2022-10-16T16:18:25;22.08;;;5.00;;
26319;SDS011;14024;52.226;5.200;2022-10-16T16:20:51;13.27;;;4.63;;
26319;SDS011;14024;52.226;5.200;2022-10-16T16:23:17;15.60;;;4.63;;